SBOSBO OPO / LPPR
Speedbird OnlineSpeedbird Online OPO / LPPR

Francisco de Sá Carneiro Airport
09:17 15.4°C

Location Porto, Portugal
Latitude: 41.2481002808
Longitude: -8.68138980865
Web Airport Website | Wikipedia
Altitude 69 Meter / 228 Feet
Distance 1,324 KM / 823 Miles
from London.
Time Zone UTC +1 hours (Europe/Lisbon)
Codes IATA: OPO
ICAO: LPPR
Currency £1 equals EUR 1.15
Runways
RunwayLength (m)Surface
173480Asphalt
353480Asphalt
Radio
TypeDescriptionFrequency
APPPorto Approach121.105
ATISATIS124.305
CLR DLVRPorto Delivery118.93
TWRPorto Tower118.005
Live ATC
METAR LPPR 060800Z 04006KT 010V120 CAVOK 14/13 Q1023
TAF TAF LPPR 060500Z 0606/0706 09005KT CAVOK BECMG 0612/0615 34010KT BECMG 0618/0621 09005KT
Weather As Of 06 Oct 2022 09:17
Description Clear sky
Wind 11 km/h from North-East (40°)
Cloud Cover 0%
Precipitation Rain: none, Snow: none
Sunrise 07:36
Sunset 19:09
Lounges ANA Lounge, International
Rotations During the last 90 days there were
180 flights from LHR
184 flights to LHR


© 2017-2022 Speedbird Online